Time,TemperatureF,DewpointF,PressureIn,WindDirection,WindDirectionDegrees,WindSpeedMPH,WindSpeedGustMPH,Humidity,HourlyPrecipIn,Conditions,Clouds,dailyrainin,SolarRadiationWatts/m^2,SoftwareType,DateUTC
2013-01-31 00:03:00,48.0,46.0,-100.00,South,184,2.0,6.0,93,0.01,,,2.62,0.000000,,2013-01-31 05:03:00,
2013-01-31 00:42:00,47.0,44.0,-100.00,SW,226,5.0,10.0,90,0.00,,,2.54,0.000000,,2013-01-31 05:42:00,
2013-01-31 00:52:00,47.0,44.0,-100.00,SW,226,5.0,10.0,90,0.00,,,2.54,0.000000,,2013-01-31 05:52:00,
2013-01-31 01:01:00,47.0,44.0,-100.00,SW,226,5.0,10.0,90,0.00,,,2.54,0.000000,,2013-01-31 06:01:00,
2013-01-31 09:03:00,33.0,18.0,-100.00,NW,313,8.0,16.0,53,0.00,,,2.28,9.000000,,2013-01-31 14:03:00,
2013-01-31 09:32:00,35.0,18.0,-100.00,NW,318,4.0,12.0,49,0.00,,,2.25,101.000000,,2013-01-31 14:32:00,
2013-01-31 09:42:00,35.0,18.0,-100.00,NW,318,4.0,12.0,49,0.00,,,2.25,101.000000,,2013-01-31 14:42:00,
2013-01-31 09:52:00,35.0,18.0,-100.00,NW,318,4.0,12.0,49,0.00,,,2.25,101.000000,,2013-01-31 14:52:00,
2013-01-31 10:03:00,35.0,18.0,-100.00,NW,318,4.0,12.0,49,0.00,,,2.25,101.000000,,2013-01-31 15:03:00,
2013-01-31 10:32:00,38.0,18.0,-100.00,NW,311,7.0,15.0,44,0.00,,,2.17,284.000000,,2013-01-31 15:32:00,
2013-01-31 10:42:00,38.0,18.0,-100.00,NW,311,7.0,15.0,44,0.00,,,2.17,284.000000,,2013-01-31 15:42:00,
2013-01-31 10:52:00,38.0,18.0,-100.00,NW,311,7.0,15.0,44,0.00,,,2.17,284.000000,,2013-01-31 15:52:00,
2013-01-31 11:04:00,38.0,18.0,-100.00,NW,311,7.0,15.0,44,0.00,,,2.17,284.000000,,2013-01-31 16:04:00,
2013-01-31 11:33:00,39.0,18.0,-100.00,NW,313,10.0,21.0,42,0.00,,,2.14,542.000000,,2013-01-31 16:33:00,
2013-01-31 11:42:00,39.0,18.0,-100.00,NW,313,10.0,21.0,42,0.00,,,2.14,542.000000,,2013-01-31 16:42:00,
2013-01-31 11:52:00,39.0,18.0,-100.00,NW,313,10.0,21.0,42,0.00,,,2.14,542.000000,,2013-01-31 16:52:00,
2013-01-31 12:03:00,39.0,18.0,-100.00,NW,313,10.0,21.0,42,0.00,,,2.14,542.000000,,2013-01-31 17:03:00,
2013-01-31 12:32:00,41.0,19.0,-100.00,NW,318,8.0,16.0,41,0.00,,,2.12,534.000000,,2013-01-31 17:32:00,
2013-01-31 12:44:00,41.0,19.0,-100.00,NW,318,8.0,16.0,41,0.00,,,2.12,534.000000,,2013-01-31 17:44:00,
2013-01-31 12:53:00,41.0,19.0,-100.00,NW,318,8.0,16.0,41,0.00,,,2.12,534.000000,,2013-01-31 17:53:00,
2013-01-31 13:03:00,41.0,19.0,-100.00,NW,318,8.0,16.0,41,0.00,,,2.12,534.000000,,2013-01-31 18:03:00,
2013-01-31 13:32:00,42.0,16.0,-100.00,NNW,330,8.0,20.0,35,0.00,,,2.10,666.000000,,2013-01-31 18:32:00,
2013-01-31 13:43:00,42.0,16.0,-100.00,NNW,330,8.0,20.0,35,0.00,,,2.10,666.000000,,2013-01-31 18:43:00,
2013-01-31 13:52:00,42.0,16.0,-100.00,NNW,330,8.0,20.0,35,0.00,,,2.10,666.000000,,2013-01-31 18:52:00,
2013-01-31 14:03:00,42.0,16.0,-100.00,NNW,330,8.0,20.0,35,0.00,,,2.10,666.000000,,2013-01-31 19:03:00,
2013-01-31 14:33:00,42.0,17.0,-100.00,North,350,9.0,15.0,36,0.00,,,2.09,642.000000,,2013-01-31 19:33:00,
2013-01-31 14:43:00,42.0,17.0,-100.00,North,350,9.0,15.0,36,0.00,,,2.09,642.000000,,2013-01-31 19:43:00,
2013-01-31 14:52:00,42.0,17.0,-100.00,North,350,9.0,15.0,36,0.00,,,2.09,642.000000,,2013-01-31 19:52:00,
2013-01-31 15:03:00,42.0,17.0,-100.00,North,350,9.0,15.0,36,0.00,,,2.09,642.000000,,2013-01-31 20:03:00,
2013-01-31 16:32:00,40.0,14.0,-100.00,NW,318,6.0,15.0,34,-99.99,,,1.84,262.000000,,2013-01-31 21:32:00,
2013-01-31 16:42:00,40.0,14.0,-100.00,NW,318,6.0,15.0,34,-99.99,,,1.84,262.000000,,2013-01-31 21:42:00,
2013-01-31 16:52:00,40.0,14.0,-100.00,NW,318,6.0,15.0,34,-99.99,,,1.84,262.000000,,2013-01-31 21:52:00,
2013-01-31 17:03:00,40.0,14.0,-100.00,NW,318,6.0,15.0,34,-99.99,,,1.84,262.000000,,2013-01-31 22:03:00,
2013-01-31 17:33:00,40.0,14.0,-100.00,NW,314,6.0,19.0,34,0.00,,,1.25,135.000000,,2013-01-31 22:33:00,
2013-01-31 17:42:00,40.0,14.0,-100.00,NW,314,6.0,19.0,34,0.00,,,1.25,135.000000,,2013-01-31 22:42:00,
2013-01-31 17:52:00,40.0,14.0,-100.00,NW,314,6.0,19.0,34,0.00,,,1.25,135.000000,,2013-01-31 22:52:00,
2013-01-31 18:03:00,40.0,14.0,-100.00,NW,314,6.0,19.0,34,0.00,,,1.25,135.000000,,2013-01-31 23:03:00,
2013-01-31 18:32:00,38.0,15.0,-100.00,NW,323,5.0,16.0,38,0.00,,,0.47,25.000000,,2013-01-31 23:32:00,
2013-01-31 18:42:00,38.0,15.0,-100.00,NW,323,5.0,16.0,38,0.00,,,0.47,25.000000,,2013-01-31 23:42:00,
2013-01-31 18:52:00,38.0,15.0,-100.00,NW,323,5.0,16.0,38,0.00,,,0.47,25.000000,,2013-01-31 23:52:00,
2013-01-31 19:02:00,38.0,15.0,-100.00,NW,323,5.0,16.0,38,0.00,,,0.47,25.000000,,2013-02-01 00:02:00,
2013-01-31 19:32:00,37.0,15.0,-100.00,ENE,71,3.0,11.0,40,0.00,,,0.25,0.000000,,2013-02-01 00:32:00,
2013-01-31 19:42:00,37.0,15.0,-100.00,ENE,71,3.0,11.0,40,0.00,,,0.25,0.000000,,2013-02-01 00:42:00,
2013-01-31 19:52:00,37.0,15.0,-100.00,ENE,71,3.0,11.0,40,0.00,,,0.25,0.000000,,2013-02-01 00:52:00,
2013-01-31 20:01:00,37.0,15.0,-100.00,ENE,71,3.0,11.0,40,0.00,,,0.25,0.000000,,2013-02-01 01:01:00,
2013-01-31 20:32:00,34.0,17.0,-100.00,ESE,121,3.0,7.0,50,0.00,,,-99.99,0.000000,,2013-02-01 01:32:00,
2013-01-31 20:42:00,34.0,17.0,-100.00,ESE,121,3.0,7.0,50,0.00,,,-99.99,0.000000,,2013-02-01 01:42:00,
2013-01-31 20:52:00,34.0,17.0,-100.00,ESE,121,3.0,7.0,50,0.00,,,-99.99,0.000000,,2013-02-01 01:52:00,
2013-01-31 21:02:00,34.0,17.0,-100.00,ESE,121,3.0,7.0,50,0.00,,,-99.99,0.000000,,2013-02-01 02:02:00,
2013-01-31 21:32:00,32.0,19.0,-100.00,WNW,301,3.0,6.0,57,0.00,,,0.06,0.000000,,2013-02-01 02:32:00,
2013-01-31 21:42:00,32.0,19.0,-100.00,WNW,301,3.0,6.0,57,0.00,,,0.06,0.000000,,2013-02-01 02:42:00,
2013-01-31 21:52:00,32.0,19.0,-100.00,WNW,301,3.0,6.0,57,0.00,,,0.06,0.000000,,2013-02-01 02:52:00,
2013-01-31 22:02:00,32.0,19.0,-100.00,WNW,301,3.0,6.0,57,0.00,,,0.06,0.000000,,2013-02-01 03:02:00,
2013-01-31 22:33:00,32.0,20.0,-100.00,SE,146,3.0,8.0,61,0.00,,,0.02,0.000000,,2013-02-01 03:33:00,
2013-01-31 22:42:00,32.0,20.0,-100.00,SE,146,3.0,8.0,61,0.00,,,0.02,0.000000,,2013-02-01 03:42:00,
2013-01-31 22:52:00,32.0,20.0,-100.00,SE,146,3.0,8.0,61,0.00,,,0.02,0.000000,,2013-02-01 03:52:00,
2013-01-31 23:02:00,32.0,20.0,-100.00,SE,146,3.0,8.0,61,0.00,,,0.02,0.000000,,2013-02-01 04:02:00,
2013-01-31 23:32:00,35.0,19.0,-100.00,SSE,159,4.0,12.0,51,0.00,,,0.01,0.000000,,2013-02-01 04:32:00,
2013-01-31 23:42:00,35.0,19.0,-100.00,SSE,159,4.0,12.0,51,0.00,,,0.01,0.000000,,2013-02-01 04:42:00,
2013-01-31 23:52:00,35.0,19.0,-100.00,SSE,159,4.0,12.0,51,0.00,,,0.01,0.000000,,2013-02-01 04:52:00,